Crescent City, Florida
Current Conditions -  °F | °C
As of 1:50 PM on Tuesday 21 Oct 2014 (Local Time) from KXFL Reporting Station
Clear Clear  
Wind Chill: 79°   Ceiling: Unl
Heat Index: 81°   Visibility: 7mi
Dew Point: 68°   Wind: 5mph
Humidity: 69%   Direction: 80°E
Pressure: 29.94"   Gusts: NA
Location:  29.43°N, 81.51°W
Report Text: KXFL 211750Z 08004KT 7SM CLR 26/20 A2994
Loading
Personal Weather Stations






























Interactive Weather Map
Tropical Storm Tracking
New forecast layout! Learn more

10-Day Weather Forecast

Advertisements
Track Severe Weather on mobile